createdAt,value
2022-08-09T00:01:43.210Z,2.03
2022-08-09T00:04:05.935Z,2.58
2022-08-09T00:06:22.920Z,2.58
2022-08-09T00:08:32.048Z,2.63
2022-08-09T00:10:34.479Z,2.20
2022-08-09T00:12:37.377Z,2.47
2022-08-09T00:14:40.159Z,2.20
2022-08-09T00:16:47.012Z,2.33
2022-08-09T00:18:49.405Z,1.83
2022-08-09T00:20:50.934Z,2.30
2022-08-09T00:22:53.085Z,2.22
2022-08-09T00:24:58.243Z,2.45
2022-08-09T00:27:01.598Z,1.95
2022-08-09T00:29:12.147Z,1.88
2022-08-09T00:31:57.354Z,2.65
2022-08-09T00:33:49.008Z,2.25
2022-08-09T00:35:52.995Z,2.33
2022-08-09T00:37:55.919Z,2.45
2022-08-09T00:40:12.464Z,2.40
2022-08-09T00:44:14.085Z,2.40
2022-08-09T00:44:40.631Z,2.38
2022-08-09T00:46:56.589Z,2.50
2022-08-09T00:49:03.979Z,2.95
2022-08-09T00:51:11.793Z,2.70
2022-08-09T00:53:14.565Z,2.88
2022-08-09T00:56:03.256Z,2.35
2022-08-09T00:57:38.391Z,2.70
2022-08-09T00:59:46.272Z,2.42
2022-08-09T01:01:50.509Z,2.60
2022-08-09T01:03:56.793Z,2.17
2022-08-09T01:06:18.337Z,2.25
2022-08-09T01:08:26.673Z,3.28
2022-08-09T01:10:44.018Z,2.85
2022-08-09T01:12:56.512Z,2.17
2022-08-09T01:15:06.015Z,2.42
2022-08-09T01:17:17.898Z,2.30
2022-08-09T01:19:39.676Z,2.60
2022-08-09T01:22:00.011Z,2.22
2022-08-09T01:24:07.557Z,2.53
2022-08-09T01:26:30.693Z,2.28
2022-08-09T01:28:33.226Z,3.00
2022-08-09T01:30:51.809Z,3.10
2022-08-09T01:32:55.759Z,2.42
2022-08-09T01:35:06.838Z,2.38
2022-08-09T01:37:21.689Z,2.80
2022-08-09T01:39:44.571Z,2.95
2022-08-09T01:41:55.705Z,2.55
2022-08-09T01:44:06.125Z,2.90
2022-08-09T01:46:10.038Z,3.08
2022-08-09T01:48:29.481Z,2.97
2022-08-09T01:50:37.021Z,2.65
2022-08-09T01:52:43.695Z,2.75
2022-08-09T01:54:51.182Z,2.90
2022-08-09T01:56:54.978Z,2.78
2022-08-09T01:59:01.539Z,2.97
2022-08-09T02:01:03.800Z,2.63
2022-08-09T02:03:06.652Z,3.22
2022-08-09T02:05:15.525Z,3.35
2022-08-09T02:08:39.105Z,2.67
2022-08-09T02:09:45.140Z,2.88
2022-08-09T02:12:02.938Z,2.83
2022-08-09T02:14:09.438Z,3.45
2022-08-09T02:16:11.312Z,2.90
2022-08-09T02:18:15.157Z,2.45
2022-08-09T02:20:26.262Z,2.70
2022-08-09T02:22:35.751Z,2.33
2022-08-09T02:24:38.258Z,3.08
2022-08-09T02:26:42.661Z,3.55
2022-08-09T02:30:48.920Z,3.08
2022-08-09T02:32:53.466Z,2.83
2022-08-09T02:35:01.976Z,3.20
2022-08-09T02:37:21.730Z,3.38
2022-08-09T02:39:42.154Z,2.95
2022-08-09T02:41:50.691Z,2.75
2022-08-09T02:43:55.579Z,2.20
2022-08-09T02:45:58.718Z,2.83
2022-08-09T02:48:05.763Z,2.83
2022-08-09T02:50:16.141Z,3.35
2022-08-09T02:52:20.277Z,2.70
2022-08-09T02:54:22.417Z,3.05
2022-08-09T02:56:23.981Z,3.22
2022-08-09T02:58:36.330Z,3.47
2022-08-09T03:00:57.649Z,3.92
2022-08-09T03:03:00.831Z,2.72
2022-08-09T03:05:04.146Z,2.88
2022-08-09T03:07:14.203Z,3.85
2022-08-09T03:09:17.614Z,2.83
2022-08-09T03:12:04.379Z,3.20
2022-08-09T03:13:59.232Z,2.78
2022-08-09T03:16:05.846Z,3.08
2022-08-09T03:18:09.686Z,2.75
2022-08-09T03:20:13.178Z,3.50
2022-08-09T03:22:41.500Z,2.92
2022-08-09T03:24:42.626Z,2.55
2022-08-09T03:26:53.914Z,3.10
2022-08-09T03:28:59.290Z,3.13
2022-08-09T03:31:04.260Z,2.75
2022-08-09T03:33:19.081Z,2.90
2022-08-09T03:35:24.675Z,2.65
2022-08-09T03:37:56.105Z,2.10
2022-08-09T03:39:59.973Z,2.90
2022-08-09T03:42:05.896Z,3.25
2022-08-09T03:44:09.193Z,2.97
2022-08-09T03:46:20.225Z,3.00
2022-08-09T03:48:31.051Z,3.20
2022-08-09T03:50:35.130Z,3.67
2022-08-09T03:52:39.001Z,3.55
2022-08-09T03:54:40.910Z,2.58
2022-08-09T03:56:44.855Z,2.88
2022-08-09T03:58:48.228Z,2.80
2022-08-09T04:00:51.715Z,2.90
2022-08-09T04:02:54.220Z,3.40
2022-08-09T04:05:00.734Z,3.70
2022-08-09T04:07:02.826Z,3.25
2022-08-09T04:09:16.079Z,3.10
2022-08-09T04:11:36.626Z,3.08
2022-08-09T04:14:36.626Z,3.20
2022-08-09T04:16:20.075Z,3.20
2022-08-09T04:18:22.109Z,3.30
2022-08-09T04:20:24.026Z,3.42
2022-08-09T04:22:27.967Z,3.38
2022-08-09T04:24:30.077Z,3.78
2022-08-09T04:26:35.168Z,3.45
2022-08-09T04:28:42.422Z,3.65
2022-08-09T04:30:48.437Z,3.53
2022-08-09T04:32:50.459Z,3.88
2022-08-09T04:34:54.114Z,3.60
2022-08-09T04:36:59.109Z,4.13
2022-08-09T04:39:02.182Z,3.67
2022-08-09T04:41:03.793Z,3.00
2022-08-09T04:43:05.841Z,3.40
2022-08-09T04:45:07.879Z,4.03
2022-08-09T04:47:10.245Z,4.95
2022-08-09T04:49:11.959Z,3.88
2022-08-09T04:51:16.581Z,4.32
2022-08-09T04:53:18.115Z,4.32
2022-08-09T04:55:19.630Z,4.45
2022-08-09T04:57:24.014Z,3.72
2022-08-09T04:59:26.752Z,4.43
2022-08-09T05:01:32.546Z,3.67
2022-08-09T05:03:42.741Z,4.00
2022-08-09T05:05:52.686Z,4.15
2022-08-09T05:08:06.751Z,4.30
2022-08-09T05:10:09.052Z,3.63
2022-08-09T05:12:12.597Z,3.65
2022-08-09T05:14:14.584Z,3.92
2022-08-09T05:16:16.279Z,4.57
2022-08-09T05:20:41.555Z,3.88
2022-08-09T05:23:54.966Z,3.80
2022-08-09T05:25:08.098Z,4.70
2022-08-09T05:27:10.547Z,4.57
2022-08-09T05:29:23.843Z,5.00
2022-08-09T05:31:44.073Z,4.07
2022-08-09T05:33:48.641Z,4.00
2022-08-09T05:35:50.967Z,4.35
2022-08-09T05:37:52.763Z,5.30
2022-08-09T05:39:54.404Z,4.88
2022-08-09T05:41:56.696Z,4.15
2022-08-09T05:44:03.352Z,4.15
2022-08-09T05:46:07.174Z,5.07
2022-08-09T05:48:08.612Z,3.80
2022-08-09T05:50:25.346Z,4.38
2022-08-09T05:52:31.913Z,5.25
2022-08-09T05:54:34.025Z,4.30
2022-08-09T05:56:35.531Z,4.03
2022-08-09T05:58:37.264Z,4.70
2022-08-09T06:00:38.804Z,4.25
2022-08-09T06:02:42.319Z,5.32
2022-08-09T06:04:48.052Z,4.75
2022-08-09T06:06:49.732Z,4.57
2022-08-09T06:08:52.717Z,4.15
2022-08-09T06:10:55.498Z,4.32
2022-08-09T06:13:02.949Z,4.55
2022-08-09T06:15:13.457Z,4.22
2022-08-09T06:17:15.741Z,4.38
2022-08-09T06:19:18.167Z,4.03
2022-08-09T06:21:22.283Z,5.38
2022-08-09T06:23:57.902Z,4.32
2022-08-09T06:25:50.471Z,4.95
2022-08-09T06:27:56.848Z,4.55
2022-08-09T06:30:08.892Z,4.80
2022-08-09T06:32:59.790Z,4.70
2022-08-09T06:34:35.036Z,3.78
2022-08-09T06:36:43.768Z,4.30
2022-08-09T06:38:49.909Z,3.67
2022-08-09T06:40:55.050Z,2.65
2022-08-09T06:42:58.171Z,2.63
2022-08-09T06:45:00.276Z,2.30
2022-08-09T06:47:06.375Z,2.13
2022-08-09T06:49:10.264Z,2.05
2022-08-09T06:51:11.821Z,2.20
2022-08-09T06:53:16.444Z,1.80
2022-08-09T06:55:23.010Z,1.30
2022-08-09T06:57:42.515Z,1.15
2022-08-09T07:00:48.872Z,1.00
2022-08-09T07:02:09.105Z,1.05
2022-08-09T07:04:10.767Z,1.13
2022-08-09T07:06:21.998Z,1.30
2022-08-09T07:08:30.630Z,1.35
2022-08-09T07:10:33.695Z,1.33
2022-08-09T07:12:40.628Z,0.80
2022-08-09T07:14:43.092Z,0.93
2022-08-09T07:16:49.755Z,0.80
2022-08-09T07:18:57.118Z,0.80
2022-08-09T07:20:58.619Z,0.75
2022-08-09T07:23:00.724Z,0.80
2022-08-09T07:25:09.773Z,0.90
2022-08-09T07:27:33.925Z,1.17
2022-08-09T07:29:38.138Z,0.90
2022-08-09T07:31:45.254Z,1.00
2022-08-09T07:33:53.283Z,0.82
2022-08-09T07:35:57.414Z,1.02
2022-08-09T07:37:59.983Z,0.70
2022-08-09T07:40:02.128Z,0.85
2022-08-09T07:42:07.137Z,0.60
2022-08-09T07:44:08.754Z,1.00
2022-08-09T07:46:13.281Z,1.13
2022-08-09T07:48:28.634Z,1.13
2022-08-09T07:50:34.862Z,1.00
2022-08-09T07:52:39.202Z,0.65
2022-08-09T07:54:44.995Z,1.13
2022-08-09T07:56:53.227Z,1.02
2022-08-09T07:58:55.492Z,0.50
2022-08-09T08:01:06.182Z,0.60
2022-08-09T08:03:12.654Z,0.50
2022-08-09T08:05:18.009Z,0.50
2022-08-09T08:08:43.914Z,0.70
2022-08-09T08:09:51.702Z,0.60
2022-08-09T08:12:10.283Z,0.50
2022-08-09T08:14:17.822Z,0.47
2022-08-09T08:16:30.024Z,0.60
2022-08-09T08:18:34.074Z,0.65
2022-08-09T08:20:39.442Z,0.50
2022-08-09T08:22:44.852Z,0.40
2022-08-09T08:24:55.610Z,0.50
2022-08-09T08:26:59.084Z,0.45
2022-08-09T08:29:00.627Z,0.53
2022-08-09T08:31:14.383Z,0.60
2022-08-09T08:35:24.879Z,0.55
2022-08-09T08:37:41.396Z,0.80
2022-08-09T08:40:00.382Z,0.60
2022-08-09T08:42:02.077Z,0.60
2022-08-09T08:44:04.805Z,0.40
2022-08-09T08:46:33.287Z,0.57
2022-08-09T08:48:31.152Z,0.60
2022-08-09T08:50:33.105Z,0.50
2022-08-09T08:52:58.183Z,0.50
2022-08-09T08:54:58.547Z,0.70
2022-08-09T08:59:02.722Z,0.63
2022-08-09T09:01:21.013Z,0.40
2022-08-09T09:03:33.241Z,0.40
2022-08-09T09:05:58.252Z,0.43
2022-08-09T09:08:02.493Z,0.40
2022-08-09T09:10:07.190Z,0.30
2022-08-09T09:12:12.287Z,0.55
2022-08-09T09:14:25.490Z,0.40
2022-08-09T09:16:33.855Z,0.60
2022-08-09T09:18:36.228Z,0.50
2022-08-09T09:20:38.738Z,0.40
2022-08-09T09:23:01.586Z,0.45
2022-08-09T09:26:02.346Z,0.30
2022-08-09T09:28:06.700Z,0.47
2022-08-09T09:32:15.585Z,0.40
2022-08-09T09:34:18.465Z,0.30
2022-08-09T09:36:21.264Z,0.30
2022-08-09T09:38:36.481Z,0.70
2022-08-09T09:40:47.823Z,0.30
2022-08-09T09:43:00.518Z,0.50
2022-08-09T09:45:14.468Z,0.50
2022-08-09T09:47:34.975Z,0.40
2022-08-09T09:50:15.231Z,0.50
2022-08-09T09:52:36.814Z,0.40
2022-08-09T09:54:55.707Z,0.50
2022-08-09T09:58:03.081Z,0.43
2022-08-09T09:59:35.210Z,0.30
2022-08-09T10:01:40.903Z,0.40
2022-08-09T10:03:56.207Z,0.40
2022-08-09T10:06:04.886Z,0.47
2022-08-09T10:08:26.001Z,0.30
2022-08-09T10:10:31.805Z,0.70
2022-08-09T10:12:43.823Z,0.50
2022-08-09T10:15:03.093Z,0.50
2022-08-09T10:17:17.650Z,0.43
2022-08-09T10:19:36.780Z,0.40
2022-08-09T10:21:45.315Z,0.40
2022-08-09T10:23:51.194Z,0.45
2022-08-09T10:26:05.972Z,0.75
2022-08-09T10:28:10.950Z,0.30
2022-08-09T10:32:02.526Z,0.60
2022-08-09T10:32:50.454Z,0.28
2022-08-09T10:34:52.243Z,0.40
2022-08-09T10:36:57.060Z,0.80
2022-08-09T10:39:00.149Z,0.80
2022-08-09T10:41:02.234Z,0.45
2022-08-09T10:43:05.322Z,0.40
2022-08-09T10:45:12.064Z,0.60
2022-08-09T10:48:16.782Z,0.80
2022-08-09T10:50:02.139Z,0.45
2022-08-09T10:52:26.348Z,0.47
2022-08-09T10:54:28.367Z,0.63
2022-08-09T10:56:30.859Z,0.75
2022-08-09T10:58:34.529Z,0.70
2022-08-09T11:01:10.865Z,0.60
2022-08-09T11:03:47.029Z,1.05
2022-08-09T11:05:41.361Z,0.70
2022-08-09T11:08:43.614Z,0.60
2022-08-09T11:10:54.801Z,0.50
2022-08-09T11:13:54.576Z,0.68
2022-08-09T11:15:51.003Z,0.70
2022-08-09T11:18:03.631Z,0.70
2022-08-09T11:20:20.349Z,0.70
2022-08-09T11:22:56.902Z,0.70
2022-08-09T11:25:08.106Z,0.77
2022-08-09T11:28:05.076Z,0.80
2022-08-09T11:30:04.485Z,0.50
2022-08-09T11:32:08.548Z,0.70
2022-08-09T11:34:13.478Z,0.75
2022-08-09T11:36:35.704Z,0.60
2022-08-09T11:38:41.430Z,0.77
2022-08-09T11:40:43.874Z,0.73
2022-08-09T11:42:47.151Z,0.70
2022-08-09T11:44:50.317Z,0.85
2022-08-09T11:46:52.999Z,0.95
2022-08-09T11:48:57.154Z,0.80
2022-08-09T11:52:48.813Z,1.05
2022-08-09T11:53:55.205Z,0.75
2022-08-09T11:55:52.215Z,0.75
2022-08-09T11:58:02.829Z,0.55
2022-08-09T12:00:16.385Z,0.87
2022-08-09T12:02:37.203Z,0.80
2022-08-09T12:04:40.755Z,0.95
2022-08-09T12:06:56.368Z,0.57
2022-08-09T12:09:01.107Z,0.82
2022-08-09T12:11:03.962Z,0.90
2022-08-09T12:14:10.136Z,0.73
2022-08-09T12:15:50.268Z,0.90
2022-08-09T12:17:52.224Z,0.98
2022-08-09T12:19:59.503Z,0.70
2022-08-09T12:22:03.083Z,0.77
2022-08-09T12:24:09.121Z,0.73
2022-08-09T12:26:11.559Z,0.90
2022-08-09T12:29:13.570Z,0.77
2022-08-09T12:30:44.474Z,0.80
2022-08-09T12:32:48.611Z,1.37
2022-08-09T12:34:50.545Z,0.60
2022-08-09T12:36:59.160Z,0.60
2022-08-09T12:39:14.413Z,0.70
2022-08-09T12:41:17.262Z,0.63
2022-08-09T12:43:23.355Z,0.88
2022-08-09T12:45:59.605Z,1.00
2022-08-09T12:48:04.153Z,0.70
2022-08-09T12:50:19.966Z,0.60
2022-08-09T12:52:42.623Z,0.60
2022-08-09T12:55:03.122Z,0.63
2022-08-09T12:57:15.903Z,0.75
2022-08-09T12:59:20.024Z,0.90
2022-08-09T13:01:28.177Z,0.60
2022-08-09T13:03:58.337Z,0.60
2022-08-09T13:06:14.586Z,0.80
2022-08-09T13:08:20.984Z,0.70
2022-08-09T13:10:45.475Z,0.68
2022-08-09T13:13:09.069Z,0.60
2022-08-09T13:15:12.541Z,1.10
2022-08-09T13:17:16.028Z,1.15
2022-08-09T13:20:10.562Z,1.00
2022-08-09T13:22:37.694Z,0.80
2022-08-09T13:24:52.526Z,0.85
2022-08-09T13:26:57.897Z,0.88
2022-08-09T13:29:07.599Z,1.00
2022-08-09T13:32:15.825Z,0.93
2022-08-09T13:33:52.488Z,0.60
2022-08-09T13:36:39.705Z,0.80
2022-08-09T13:38:32.960Z,0.80
2022-08-09T13:41:45.907Z,1.15
2022-08-09T13:42:59.760Z,0.90
2022-08-09T13:45:12.197Z,0.60
2022-08-09T13:47:33.071Z,0.47
2022-08-09T13:49:39.775Z,0.70
2022-08-09T13:52:00.822Z,0.90
2022-08-09T13:54:02.966Z,0.65
2022-08-09T13:56:04.570Z,0.98
2022-08-09T13:58:11.475Z,0.70
2022-08-09T14:00:15.512Z,0.68
2022-08-09T14:02:17.286Z,0.73
2022-08-09T14:04:27.777Z,0.90
2022-08-09T14:06:31.843Z,1.02
2022-08-09T14:08:36.745Z,0.70
2022-08-09T14:10:49.243Z,0.88
2022-08-09T14:12:53.583Z,0.73
2022-08-09T14:14:56.561Z,0.90
2022-08-09T14:16:58.668Z,0.55
2022-08-09T14:19:00.286Z,0.68
2022-08-09T14:21:02.027Z,0.90
2022-08-09T14:23:04.115Z,0.80
2022-08-09T14:25:05.706Z,1.13
2022-08-09T14:27:20.041Z,0.68
2022-08-09T14:30:04.126Z,0.75
2022-08-09T14:31:49.930Z,1.00
2022-08-09T14:33:54.721Z,0.93
2022-08-09T14:35:56.358Z,0.90
2022-08-09T14:38:02.960Z,0.70
2022-08-09T14:40:06.838Z,0.68
2022-08-09T14:42:08.411Z,1.37
2022-08-09T14:44:11.382Z,0.63
2022-08-09T14:46:57.564Z,1.10
2022-08-09T14:48:34.629Z,0.98
2022-08-09T14:50:36.952Z,0.80
2022-08-09T14:52:38.613Z,1.25
2022-08-09T14:54:40.179Z,0.80
2022-08-09T14:56:58.207Z,0.80
2022-08-09T14:59:00.746Z,0.70
2022-08-09T15:01:02.334Z,1.08
2022-08-09T15:05:07.163Z,0.70
2022-08-09T15:07:10.345Z,1.55
2022-08-09T15:09:11.935Z,0.70
2022-08-09T15:11:16.489Z,0.70
2022-08-09T15:13:18.295Z,1.10
2022-08-09T15:15:20.331Z,1.27
2022-08-09T15:17:22.929Z,0.82
2022-08-09T15:19:26.975Z,1.02
2022-08-09T15:21:57.606Z,0.80
2022-08-09T15:24:06.033Z,0.60
2022-08-09T15:26:18.539Z,0.77
2022-08-09T15:28:33.380Z,0.73
2022-08-09T15:30:58.435Z,0.68
2022-08-09T15:32:57.149Z,0.88
2022-08-09T15:35:01.596Z,0.93
2022-08-09T15:37:23.929Z,0.90
2022-08-09T15:39:26.016Z,0.88
2022-08-09T15:41:36.760Z,0.90
2022-08-09T15:43:43.511Z,0.70
2022-08-09T15:45:52.047Z,1.45
2022-08-09T15:48:28.359Z,1.00
2022-08-09T15:50:31.214Z,0.80
2022-08-09T15:52:36.217Z,0.90
2022-08-09T15:54:46.241Z,0.77
2022-08-09T15:56:50.272Z,1.15
2022-08-09T15:58:53.984Z,0.90
2022-08-09T16:00:56.769Z,0.77
2022-08-09T16:02:58.519Z,0.87
2022-08-09T16:05:02.360Z,0.95
2022-08-09T16:07:06.474Z,0.80
2022-08-09T16:09:09.759Z,1.35
2022-08-09T16:11:11.330Z,0.75
2022-08-09T16:13:21.076Z,1.65
2022-08-09T16:16:10.910Z,0.85
2022-08-09T16:17:55.749Z,0.60
2022-08-09T16:20:04.713Z,0.60
2022-08-09T16:22:06.776Z,0.82
2022-08-09T16:24:30.331Z,0.90
2022-08-09T16:26:36.614Z,0.80
2022-08-09T16:28:38.380Z,0.90
2022-08-09T16:30:40.903Z,1.00
2022-08-09T16:33:04.964Z,0.63
2022-08-09T16:35:07.212Z,1.00
2022-08-09T16:37:12.804Z,0.80
2022-08-09T16:39:16.693Z,0.98
2022-08-09T16:41:23.315Z,0.63
2022-08-09T16:43:40.937Z,0.93
2022-08-09T16:45:44.225Z,0.90
2022-08-09T16:48:38.671Z,1.10
2022-08-09T16:50:31.374Z,0.80
2022-08-09T16:52:31.177Z,0.88
2022-08-09T16:54:34.444Z,0.80
2022-08-09T16:56:36.679Z,0.70
2022-08-09T16:58:50.652Z,1.45
2022-08-09T17:00:52.669Z,0.73
2022-08-09T17:02:57.256Z,0.67
2022-08-09T17:04:59.805Z,0.73
2022-08-09T17:08:41.376Z,1.10
2022-08-09T17:09:45.476Z,0.80
2022-08-09T17:11:44.484Z,0.95
2022-08-09T17:14:01.054Z,1.08
2022-08-09T17:16:03.694Z,0.90
2022-08-09T17:18:06.194Z,1.15
2022-08-09T17:20:32.325Z,0.85
2022-08-09T17:22:34.220Z,0.85
2022-08-09T17:24:37.623Z,0.85
2022-08-09T17:26:53.320Z,0.98
2022-08-09T17:28:55.172Z,0.80
2022-08-09T17:30:56.752Z,0.90
2022-08-09T17:33:05.354Z,0.90
2022-08-09T17:35:20.860Z,0.70
2022-08-09T17:37:22.743Z,0.77
2022-08-09T17:39:25.078Z,0.73
2022-08-09T17:41:38.702Z,1.00
2022-08-09T17:43:41.152Z,1.38
2022-08-09T17:46:03.905Z,0.90
2022-08-09T17:48:05.424Z,1.95
2022-08-09T17:50:13.908Z,0.90
2022-08-09T17:52:22.133Z,0.60
2022-08-09T17:54:25.285Z,0.77
2022-08-09T17:56:35.426Z,0.88
2022-08-09T17:58:37.927Z,0.90
2022-08-09T18:00:48.263Z,0.68
2022-08-09T18:02:58.244Z,1.00
2022-08-09T18:05:00.351Z,0.60
2022-08-09T18:07:04.702Z,0.70
2022-08-09T18:09:09.020Z,1.13
2022-08-09T18:11:16.332Z,1.05
2022-08-09T18:13:43.432Z,0.68
2022-08-09T18:16:05.013Z,0.80
2022-08-09T18:18:08.092Z,1.00
2022-08-09T18:20:55.134Z,0.93
2022-08-09T18:22:34.892Z,0.73
2022-08-09T18:24:39.079Z,0.82
2022-08-09T18:26:46.218Z,1.10
2022-08-09T18:30:35.148Z,0.90
2022-08-09T18:31:10.670Z,0.90
2022-08-09T18:33:12.945Z,1.02
2022-08-09T18:35:15.236Z,0.93
2022-08-09T18:37:47.907Z,0.75
2022-08-09T18:39:48.384Z,0.90
2022-08-09T18:41:53.274Z,0.98
2022-08-09T18:43:55.571Z,0.90
2022-08-09T18:46:50.226Z,0.80
2022-08-09T18:48:19.029Z,0.98
2022-08-09T18:50:21.833Z,1.15
2022-08-09T18:52:35.168Z,1.08
2022-08-09T18:54:37.771Z,0.90
2022-08-09T18:56:39.226Z,0.85
2022-08-09T18:58:43.679Z,1.00
2022-08-09T19:00:50.652Z,1.05
2022-08-09T19:02:54.180Z,0.80
2022-08-09T19:05:04.279Z,0.90
2022-08-09T19:07:16.710Z,0.80
2022-08-09T19:09:34.168Z,1.20
2022-08-09T19:11:40.420Z,0.82
2022-08-09T19:13:51.173Z,0.68
2022-08-09T19:15:56.657Z,1.10
2022-08-09T19:17:58.928Z,1.23
2022-08-09T19:20:02.060Z,0.90
2022-08-09T19:22:04.508Z,1.00
2022-08-09T19:24:32.673Z,1.08
2022-08-09T19:26:35.245Z,1.15
2022-08-09T19:28:38.255Z,1.48
2022-08-09T19:30:44.705Z,1.20
2022-08-09T19:32:46.408Z,1.30
2022-08-09T19:34:55.158Z,1.10
2022-08-09T19:36:59.131Z,0.90
2022-08-09T19:39:01.273Z,0.88
2022-08-09T19:41:06.893Z,1.20
2022-08-09T19:43:10.196Z,1.15
2022-08-09T19:45:39.092Z,0.80
2022-08-09T19:47:44.629Z,1.10
2022-08-09T19:50:07.189Z,0.90
2022-08-09T19:52:08.489Z,1.77
2022-08-09T19:54:10.073Z,0.95
2022-08-09T19:56:15.427Z,1.67
2022-08-09T19:58:17.349Z,1.10
2022-08-09T20:00:31.509Z,1.50
2022-08-09T20:04:08.157Z,1.15
2022-08-09T20:04:55.546Z,1.25
2022-08-09T20:06:57.619Z,1.10
2022-08-09T20:08:59.604Z,1.35
2022-08-09T20:11:04.477Z,1.30
2022-08-09T20:13:08.138Z,1.85
2022-08-09T20:16:33.143Z,0.90
2022-08-09T20:17:41.506Z,1.20
2022-08-09T20:19:54.638Z,1.13
2022-08-09T20:21:59.999Z,1.00
2022-08-09T20:24:02.179Z,1.13
2022-08-09T20:26:03.755Z,1.00
2022-08-09T20:28:08.393Z,1.10
2022-08-09T20:30:14.617Z,0.90
2022-08-09T20:32:30.923Z,0.80
2022-08-09T20:34:35.365Z,1.45
2022-08-09T20:36:37.267Z,1.60
2022-08-09T20:39:18.745Z,1.13
2022-08-09T20:41:01.435Z,1.38
2022-08-09T20:43:18.034Z,2.88
2022-08-09T20:45:59.837Z,1.38
2022-08-09T20:47:48.693Z,1.10
2022-08-09T20:49:50.820Z,1.45
2022-08-09T20:51:52.439Z,1.17
2022-08-09T20:53:55.895Z,2.50
2022-08-09T20:56:02.065Z,1.67
2022-08-09T20:58:08.454Z,1.75
2022-08-09T21:00:31.723Z,1.67
2022-08-09T21:02:34.135Z,1.10
2022-08-09T21:05:55.221Z,1.40
2022-08-09T21:06:57.358Z,1.60
2022-08-09T21:08:59.015Z,1.75
2022-08-09T21:11:00.718Z,1.30
2022-08-09T21:13:08.114Z,2.30
2022-08-09T21:15:14.074Z,1.35
2022-08-09T21:18:10.976Z,1.55
2022-08-09T21:20:17.513Z,1.52
2022-08-09T21:22:02.776Z,1.85
2022-08-09T21:24:04.648Z,1.60
2022-08-09T21:26:07.633Z,1.52
2022-08-09T21:28:12.230Z,1.35
2022-08-09T21:30:18.674Z,1.30
2022-08-09T21:32:20.397Z,1.30
2022-08-09T21:34:34.975Z,2.05
2022-08-09T21:36:36.541Z,1.88
2022-08-09T21:38:38.449Z,1.77
2022-08-09T21:40:40.887Z,1.73
2022-08-09T21:42:42.415Z,1.65
2022-08-09T21:44:46.222Z,1.98
2022-08-09T21:46:47.723Z,1.70
2022-08-09T21:48:51.277Z,1.60
2022-08-09T21:50:52.867Z,1.63
2022-08-09T21:52:54.759Z,1.77
2022-08-09T21:55:03.465Z,1.58
2022-08-09T21:57:06.135Z,1.85
2022-08-09T21:59:27.344Z,2.20
2022-08-09T22:02:00.369Z,1.58
2022-08-09T22:04:05.089Z,2.00
2022-08-09T22:06:08.705Z,2.10
2022-08-09T22:08:15.190Z,2.95
2022-08-09T22:10:23.190Z,1.90
2022-08-09T22:12:30.821Z,1.85
2022-08-09T22:14:35.175Z,1.90
2022-08-09T22:16:39.471Z,2.05
2022-08-09T22:18:52.879Z,2.45
2022-08-09T22:20:57.907Z,2.08
2022-08-09T22:23:01.684Z,2.15
2022-08-09T22:26:04.319Z,1.80
2022-08-09T22:27:32.109Z,1.90
2022-08-09T22:29:47.662Z,2.35
2022-08-09T22:31:57.408Z,2.30
2022-08-09T22:33:59.284Z,2.13
2022-08-09T22:36:03.791Z,2.72
2022-08-09T22:38:07.536Z,2.05
2022-08-09T22:40:10.256Z,2.30
2022-08-09T22:42:22.312Z,1.90
2022-08-09T22:44:25.877Z,1.98
2022-08-09T22:48:15.362Z,2.47
2022-08-09T22:48:56.274Z,1.98
2022-08-09T22:51:10.638Z,1.75
2022-08-09T22:53:19.447Z,3.05
2022-08-09T22:55:22.968Z,2.95
2022-08-09T22:57:35.586Z,2.38
2022-08-09T22:59:55.796Z,2.60
2022-08-09T23:01:59.440Z,2.40
2022-08-09T23:04:03.782Z,2.47
2022-08-09T23:06:07.899Z,2.45
2022-08-09T23:08:34.588Z,2.30
2022-08-09T23:10:39.213Z,2.08
2022-08-09T23:12:44.757Z,2.75
2022-08-09T23:14:46.185Z,2.47
2022-08-09T23:16:48.063Z,2.95
2022-08-09T23:18:49.536Z,2.35
2022-08-09T23:20:50.972Z,2.45
2022-08-09T23:22:52.488Z,2.30
2022-08-09T23:24:53.975Z,2.25
2022-08-09T23:26:55.464Z,2.08
2022-08-09T23:28:57.085Z,2.42
2022-08-09T23:30:58.712Z,2.13
2022-08-09T23:33:00.221Z,2.50
2022-08-09T23:35:01.715Z,2.25
2022-08-09T23:37:03.182Z,2.35
2022-08-09T23:39:05.336Z,2.42
2022-08-09T23:41:06.874Z,2.67
2022-08-09T23:43:08.672Z,2.55
2022-08-09T23:45:11.115Z,2.75
2022-08-09T23:47:32.671Z,3.22
2022-08-09T23:49:34.122Z,2.58
2022-08-09T23:51:35.588Z,2.70
2022-08-09T23:53:38.407Z,2.65
2022-08-09T23:55:40.131Z,2.25
2022-08-09T23:58:07.990Z,2.83
